sensor_id;sensor_type;location;lat;lon;timestamp;P1;durP1;ratioP1;P2;durP2;ratioP2
70270;SDS011;57680;54.292;18.598;2023-01-29T00:01:50;6.87;;;2.87;;
70270;SDS011;57680;54.292;18.598;2023-01-29T00:04:16;9.37;;;3.07;;
70270;SDS011;57680;54.292;18.598;2023-01-29T00:06:41;8.45;;;3.30;;
70270;SDS011;57680;54.292;18.598;2023-01-29T00:09:07;7.13;;;2.90;;
70270;SDS011;57680;54.292;18.598;2023-01-29T00:11:33;7.75;;;3.10;;
70270;SDS011;57680;54.292;18.598;2023-01-29T00:13:59;7.47;;;3.33;;
70270;SDS011;57680;54.292;18.598;2023-01-29T00:16:24;8.25;;;2.92;;
70270;SDS011;57680;54.292;18.598;2023-01-29T00:18:50;8.43;;;3.30;;
70270;SDS011;57680;54.292;18.598;2023-01-29T00:21:16;8.67;;;3.23;;
70270;SDS011;57680;54.292;18.598;2023-01-29T00:23:43;8.18;;;3.70;;
70270;SDS011;57680;54.292;18.598;2023-01-29T00:26:09;8.95;;;3.17;;
70270;SDS011;57680;54.292;18.598;2023-01-29T00:28:35;7.35;;;3.10;;
70270;SDS011;57680;54.292;18.598;2023-01-29T00:31:20;10.47;;;3.93;;
70270;SDS011;57680;54.292;18.598;2023-01-29T00:33:48;8.88;;;3.65;;
70270;SDS011;57680;54.292;18.598;2023-01-29T00:36:15;9.75;;;3.58;;
70270;SDS011;57680;54.292;18.598;2023-01-29T00:38:42;9.20;;;3.40;;
70270;SDS011;57680;54.292;18.598;2023-01-29T00:41:09;7.47;;;2.90;;
70270;SDS011;57680;54.292;18.598;2023-01-29T00:43:55;10.00;;;3.80;;
70270;SDS011;57680;54.292;18.598;2023-01-29T00:46:39;10.15;;;3.13;;
70270;SDS011;57680;54.292;18.598;2023-01-29T00:49:05;9.10;;;3.23;;
70270;SDS011;57680;54.292;18.598;2023-01-29T00:51:31;8.05;;;3.17;;
70270;SDS011;57680;54.292;18.598;2023-01-29T00:53:56;7.70;;;2.90;;
70270;SDS011;57680;54.292;18.598;2023-01-29T00:56:26;8.38;;;2.97;;
70270;SDS011;57680;54.292;18.598;2023-01-29T00:58:53;7.60;;;2.87;;
70270;SDS011;57680;54.292;18.598;2023-01-29T01:01:19;8.35;;;2.70;;
70270;SDS011;57680;54.292;18.598;2023-01-29T01:04:04;7.38;;;3.35;;
70270;SDS011;57680;54.292;18.598;2023-01-29T01:06:30;7.93;;;2.97;;
70270;SDS011;57680;54.292;18.598;2023-01-29T01:08:55;7.60;;;2.83;;
70270;SDS011;57680;54.292;18.598;2023-01-29T01:11:39;10.00;;;3.17;;
70270;SDS011;57680;54.292;18.598;2023-01-29T01:14:04;8.65;;;3.38;;
70270;SDS011;57680;54.292;18.598;2023-01-29T01:16:29;7.30;;;2.90;;
70270;SDS011;57680;54.292;18.598;2023-01-29T01:18:55;9.97;;;3.80;;
70270;SDS011;57680;54.292;18.598;2023-01-29T01:21:20;9.30;;;3.60;;
70270;SDS011;57680;54.292;18.598;2023-01-29T01:23:46;7.85;;;3.47;;
70270;SDS011;57680;54.292;18.598;2023-01-29T01:26:11;8.70;;;3.17;;
70270;SDS011;57680;54.292;18.598;2023-01-29T01:28:37;9.37;;;3.33;;
70270;SDS011;57680;54.292;18.598;2023-01-29T01:31:07;10.13;;;3.70;;
70270;SDS011;57680;54.292;18.598;2023-01-29T01:33:34;10.70;;;3.63;;
70270;SDS011;57680;54.292;18.598;2023-01-29T01:36:01;9.77;;;3.70;;
70270;SDS011;57680;54.292;18.598;2023-01-29T01:38:27;10.33;;;3.90;;
70270;SDS011;57680;54.292;18.598;2023-01-29T01:40:52;10.85;;;3.63;;
70270;SDS011;57680;54.292;18.598;2023-01-29T01:43:18;11.10;;;3.70;;
70270;SDS011;57680;54.292;18.598;2023-01-29T01:45:44;10.90;;;4.03;;
70270;SDS011;57680;54.292;18.598;2023-01-29T01:48:15;12.35;;;3.88;;
70270;SDS011;57680;54.292;18.598;2023-01-29T01:53:35;10.13;;;4.07;;
70270;SDS011;57680;54.292;18.598;2023-01-29T01:56:12;10.75;;;4.15;;
70270;SDS011;57680;54.292;18.598;2023-01-29T01:58:44;10.10;;;3.80;;
70270;SDS011;57680;54.292;18.598;2023-01-29T02:01:14;8.30;;;3.53;;
70270;SDS011;57680;54.292;18.598;2023-01-29T02:03:44;10.02;;;3.78;;
70270;SDS011;57680;54.292;18.598;2023-01-29T02:06:33;11.43;;;3.35;;
70270;SDS011;57680;54.292;18.598;2023-01-29T02:09:19;8.73;;;3.90;;
70270;SDS011;57680;54.292;18.598;2023-01-29T02:12:09;12.77;;;3.97;;
70270;SDS011;57680;54.292;18.598;2023-01-29T02:14:36;9.00;;;3.58;;
70270;SDS011;57680;54.292;18.598;2023-01-29T02:17:04;12.13;;;3.92;;
70270;SDS011;57680;54.292;18.598;2023-01-29T02:33:30;12.90;;;4.40;;
70270;SDS011;57680;54.292;18.598;2023-01-29T02:36:10;10.23;;;4.60;;
70270;SDS011;57680;54.292;18.598;2023-01-29T02:44:29;11.20;;;4.18;;
70270;SDS011;57680;54.292;18.598;2023-01-29T02:47:03;9.55;;;3.42;;
70270;SDS011;57680;54.292;18.598;2023-01-29T02:49:44;9.27;;;3.88;;
70270;SDS011;57680;54.292;18.598;2023-01-29T02:52:22;10.47;;;3.80;;
70270;SDS011;57680;54.292;18.598;2023-01-29T02:54:53;9.95;;;4.22;;
70270;SDS011;57680;54.292;18.598;2023-01-29T02:57:20;10.75;;;4.22;;
70270;SDS011;57680;54.292;18.598;2023-01-29T02:59:49;10.98;;;4.10;;
70270;SDS011;57680;54.292;18.598;2023-01-29T03:02:20;9.63;;;4.20;;
70270;SDS011;57680;54.292;18.598;2023-01-29T03:04:56;9.70;;;4.23;;
70270;SDS011;57680;54.292;18.598;2023-01-29T03:07:26;9.80;;;4.45;;
70270;SDS011;57680;54.292;18.598;2023-01-29T03:10:17;10.65;;;4.20;;
70270;SDS011;57680;54.292;18.598;2023-01-29T03:12:47;9.82;;;3.88;;
70270;SDS011;57680;54.292;18.598;2023-01-29T03:15:27;11.15;;;4.30;;
70270;SDS011;57680;54.292;18.598;2023-01-29T03:18:07;9.43;;;3.63;;
70270;SDS011;57680;54.292;18.598;2023-01-29T03:20:45;10.07;;;3.88;;
70270;SDS011;57680;54.292;18.598;2023-01-29T03:23:15;9.38;;;3.72;;
70270;SDS011;57680;54.292;18.598;2023-01-29T03:25:49;11.45;;;4.32;;
70270;SDS011;57680;54.292;18.598;2023-01-29T03:28:37;11.50;;;4.30;;
70270;SDS011;57680;54.292;18.598;2023-01-29T03:31:24;12.00;;;4.83;;
70270;SDS011;57680;54.292;18.598;2023-01-29T03:34:11;13.65;;;4.90;;
70270;SDS011;57680;54.292;18.598;2023-01-29T03:39:11;12.15;;;5.20;;
70270;SDS011;57680;54.292;18.598;2023-01-29T03:42:01;11.65;;;4.90;;
70270;SDS011;57680;54.292;18.598;2023-01-29T03:44:37;12.43;;;5.40;;
70270;SDS011;57680;54.292;18.598;2023-01-29T03:50:33;13.07;;;5.03;;
70270;SDS011;57680;54.292;18.598;2023-01-29T03:53:28;14.80;;;4.97;;
70270;SDS011;57680;54.292;18.598;2023-01-29T03:58:58;13.90;;;5.90;;
70270;SDS011;57680;54.292;18.598;2023-01-29T04:01:39;14.18;;;5.72;;
70270;SDS011;57680;54.292;18.598;2023-01-29T04:04:11;13.55;;;5.60;;
70270;SDS011;57680;54.292;18.598;2023-01-29T04:07:16;16.20;;;6.35;;
70270;SDS011;57680;54.292;18.598;2023-01-29T04:09:59;13.93;;;6.00;;
70270;SDS011;57680;54.292;18.598;2023-01-29T04:12:29;14.27;;;6.00;;
70270;SDS011;57680;54.292;18.598;2023-01-29T04:15:01;16.50;;;6.78;;
70270;SDS011;57680;54.292;18.598;2023-01-29T04:17:33;17.38;;;6.63;;
70270;SDS011;57680;54.292;18.598;2023-01-29T04:20:05;16.10;;;6.20;;
70270;SDS011;57680;54.292;18.598;2023-01-29T04:22:32;15.50;;;6.90;;
70270;SDS011;57680;54.292;18.598;2023-01-29T04:25:01;14.70;;;5.93;;
70270;SDS011;57680;54.292;18.598;2023-01-29T04:27:51;17.80;;;6.60;;
70270;SDS011;57680;54.292;18.598;2023-01-29T04:57:50;13.18;;;5.15;;
70270;SDS011;57680;54.292;18.598;2023-01-29T05:02:47;13.95;;;5.70;;
70270;SDS011;57680;54.292;18.598;2023-01-29T05:05:14;14.33;;;5.90;;
70270;SDS011;57680;54.292;18.598;2023-01-29T05:07:43;16.90;;;6.35;;
70270;SDS011;57680;54.292;18.598;2023-01-29T05:10:09;15.23;;;6.18;;
70270;SDS011;57680;54.292;18.598;2023-01-29T05:12:37;15.10;;;6.00;;
70270;SDS011;57680;54.292;18.598;2023-01-29T05:15:07;14.00;;;5.90;;
70270;SDS011;57680;54.292;18.598;2023-01-29T05:17:36;14.18;;;5.57;;
70270;SDS011;57680;54.292;18.598;2023-01-29T05:20:02;13.90;;;5.75;;
70270;SDS011;57680;54.292;18.598;2023-01-29T05:22:28;12.33;;;5.10;;
70270;SDS011;57680;54.292;18.598;2023-01-29T05:24:54;12.70;;;5.13;;
70270;SDS011;57680;54.292;18.598;2023-01-29T05:27:21;11.70;;;4.70;;
70270;SDS011;57680;54.292;18.598;2023-01-29T05:30:10;11.75;;;4.50;;
70270;SDS011;57680;54.292;18.598;2023-01-29T05:32:36;11.50;;;4.53;;
70270;SDS011;57680;54.292;18.598;2023-01-29T05:35:01;11.47;;;4.53;;
70270;SDS011;57680;54.292;18.598;2023-01-29T05:37:27;11.70;;;5.00;;
70270;SDS011;57680;54.292;18.598;2023-01-29T05:39:53;11.98;;;5.10;;
70270;SDS011;57680;54.292;18.598;2023-01-29T05:42:19;11.75;;;4.90;;
70270;SDS011;57680;54.292;18.598;2023-01-29T05:44:44;9.47;;;4.10;;
70270;SDS011;57680;54.292;18.598;2023-01-29T05:47:09;10.90;;;4.97;;
70270;SDS011;57680;54.292;18.598;2023-01-29T05:49:35;11.37;;;4.47;;
70270;SDS011;57680;54.292;18.598;2023-01-29T05:52:00;10.48;;;4.38;;
70270;SDS011;57680;54.292;18.598;2023-01-29T05:54:26;11.10;;;4.30;;
70270;SDS011;57680;54.292;18.598;2023-01-29T05:56:51;11.40;;;4.33;;
70270;SDS011;57680;54.292;18.598;2023-01-29T05:59:16;12.03;;;4.87;;
70270;SDS011;57680;54.292;18.598;2023-01-29T06:01:42;11.37;;;4.37;;
70270;SDS011;57680;54.292;18.598;2023-01-29T06:04:07;10.38;;;4.28;;
70270;SDS011;57680;54.292;18.598;2023-01-29T06:06:33;9.13;;;3.90;;
70270;SDS011;57680;54.292;18.598;2023-01-29T06:08:59;10.30;;;3.88;;
70270;SDS011;57680;54.292;18.598;2023-01-29T06:11:24;9.40;;;3.93;;
70270;SDS011;57680;54.292;18.598;2023-01-29T06:13:49;10.57;;;4.40;;
70270;SDS011;57680;54.292;18.598;2023-01-29T06:16:15;11.07;;;4.57;;
70270;SDS011;57680;54.292;18.598;2023-01-29T06:18:40;13.13;;;4.72;;
70270;SDS011;57680;54.292;18.598;2023-01-29T06:21:08;11.47;;;5.13;;
70270;SDS011;57680;54.292;18.598;2023-01-29T06:23:35;10.90;;;4.43;;
70270;SDS011;57680;54.292;18.598;2023-01-29T06:26:10;11.40;;;4.43;;
70270;SDS011;57680;54.292;18.598;2023-01-29T06:28:37;11.68;;;4.65;;
70270;SDS011;57680;54.292;18.598;2023-01-29T06:31:03;10.97;;;4.50;;
70270;SDS011;57680;54.292;18.598;2023-01-29T06:33:29;10.73;;;4.50;;
70270;SDS011;57680;54.292;18.598;2023-01-29T06:35:59;11.20;;;4.35;;
70270;SDS011;57680;54.292;18.598;2023-01-29T06:38:26;12.77;;;4.90;;
70270;SDS011;57680;54.292;18.598;2023-01-29T06:40:52;13.48;;;5.45;;
70270;SDS011;57680;54.292;18.598;2023-01-29T06:43:19;13.52;;;4.93;;
70270;SDS011;57680;54.292;18.598;2023-01-29T06:45:49;13.10;;;4.97;;
70270;SDS011;57680;54.292;18.598;2023-01-29T06:48:15;13.98;;;5.10;;
70270;SDS011;57680;54.292;18.598;2023-01-29T06:50:41;12.03;;;5.07;;
70270;SDS011;57680;54.292;18.598;2023-01-29T06:53:06;15.18;;;4.88;;
70270;SDS011;57680;54.292;18.598;2023-01-29T06:55:32;12.40;;;4.73;;
70270;SDS011;57680;54.292;18.598;2023-01-29T06:57:57;12.67;;;4.23;;
70270;SDS011;57680;54.292;18.598;2023-01-29T07:00:23;12.37;;;4.93;;
70270;SDS011;57680;54.292;18.598;2023-01-29T07:02:48;12.63;;;4.97;;
70270;SDS011;57680;54.292;18.598;2023-01-29T07:05:14;13.32;;;4.93;;
70270;SDS011;57680;54.292;18.598;2023-01-29T07:07:39;13.83;;;5.10;;
70270;SDS011;57680;54.292;18.598;2023-01-29T07:10:05;14.67;;;5.57;;
70270;SDS011;57680;54.292;18.598;2023-01-29T07:12:31;14.10;;;5.18;;
70270;SDS011;57680;54.292;18.598;2023-01-29T07:14:56;13.27;;;5.00;;
70270;SDS011;57680;54.292;18.598;2023-01-29T07:17:22;15.00;;;5.30;;
70270;SDS011;57680;54.292;18.598;2023-01-29T07:19:48;14.07;;;5.40;;
70270;SDS011;57680;54.292;18.598;2023-01-29T07:22:13;15.27;;;4.87;;
70270;SDS011;57680;54.292;18.598;2023-01-29T07:24:40;12.07;;;5.20;;
70270;SDS011;57680;54.292;18.598;2023-01-29T07:27:06;12.75;;;4.82;;
70270;SDS011;57680;54.292;18.598;2023-01-29T07:29:31;14.20;;;4.77;;
70270;SDS011;57680;54.292;18.598;2023-01-29T07:31:56;13.50;;;4.80;;
70270;SDS011;57680;54.292;18.598;2023-01-29T07:34:22;13.13;;;4.63;;
70270;SDS011;57680;54.292;18.598;2023-01-29T07:36:47;9.63;;;4.10;;
70270;SDS011;57680;54.292;18.598;2023-01-29T07:39:13;14.30;;;4.53;;
70270;SDS011;57680;54.292;18.598;2023-01-29T07:41:39;11.63;;;4.40;;
70270;SDS011;57680;54.292;18.598;2023-01-29T07:44:04;13.30;;;4.53;;
70270;SDS011;57680;54.292;18.598;2023-01-29T07:46:30;11.70;;;4.33;;
70270;SDS011;57680;54.292;18.598;2023-01-29T07:48:56;11.50;;;4.40;;
70270;SDS011;57680;54.292;18.598;2023-01-29T07:51:22;12.20;;;4.00;;
70270;SDS011;57680;54.292;18.598;2023-01-29T07:53:47;11.80;;;4.18;;
70270;SDS011;57680;54.292;18.598;2023-01-29T07:56:13;12.90;;;4.43;;
70270;SDS011;57680;54.292;18.598;2023-01-29T07:58:38;12.13;;;4.37;;
70270;SDS011;57680;54.292;18.598;2023-01-29T08:01:05;11.03;;;3.80;;
70270;SDS011;57680;54.292;18.598;2023-01-29T08:03:31;11.63;;;3.55;;
70270;SDS011;57680;54.292;18.598;2023-01-29T08:05:57;9.50;;;3.92;;
70270;SDS011;57680;54.292;18.598;2023-01-29T08:08:22;12.10;;;3.80;;
70270;SDS011;57680;54.292;18.598;2023-01-29T08:10:49;9.15;;;3.45;;
70270;SDS011;57680;54.292;18.598;2023-01-29T08:13:15;11.10;;;3.57;;
70270;SDS011;57680;54.292;18.598;2023-01-29T08:15:44;9.70;;;3.40;;
70270;SDS011;57680;54.292;18.598;2023-01-29T08:18:10;9.13;;;3.50;;
70270;SDS011;57680;54.292;18.598;2023-01-29T08:20:36;10.57;;;3.22;;
70270;SDS011;57680;54.292;18.598;2023-01-29T08:23:02;10.50;;;3.53;;
70270;SDS011;57680;54.292;18.598;2023-01-29T08:25:29;8.73;;;3.40;;
70270;SDS011;57680;54.292;18.598;2023-01-29T08:27:56;9.57;;;2.85;;
70270;SDS011;57680;54.292;18.598;2023-01-29T08:30:22;9.73;;;2.90;;
70270;SDS011;57680;54.292;18.598;2023-01-29T08:32:47;7.53;;;2.95;;
70270;SDS011;57680;54.292;18.598;2023-01-29T08:35:12;7.57;;;3.07;;
70270;SDS011;57680;54.292;18.598;2023-01-29T08:37:38;9.00;;;3.27;;
70270;SDS011;57680;54.292;18.598;2023-01-29T08:40:04;7.70;;;3.03;;
70270;SDS011;57680;54.292;18.598;2023-01-29T08:42:30;7.65;;;2.97;;
70270;SDS011;57680;54.292;18.598;2023-01-29T08:44:55;8.13;;;3.00;;
70270;SDS011;57680;54.292;18.598;2023-01-29T08:47:21;8.97;;;3.13;;
70270;SDS011;57680;54.292;18.598;2023-01-29T08:49:46;11.40;;;3.50;;
70270;SDS011;57680;54.292;18.598;2023-01-29T08:52:11;7.13;;;2.70;;
70270;SDS011;57680;54.292;18.598;2023-01-29T08:54:37;6.40;;;2.53;;
70270;SDS011;57680;54.292;18.598;2023-01-29T08:57:02;8.13;;;2.83;;
70270;SDS011;57680;54.292;18.598;2023-01-29T08:59:28;7.90;;;3.10;;
70270;SDS011;57680;54.292;18.598;2023-01-29T09:01:53;7.57;;;3.03;;
70270;SDS011;57680;54.292;18.598;2023-01-29T09:04:19;7.80;;;3.23;;
70270;SDS011;57680;54.292;18.598;2023-01-29T09:06:44;6.60;;;2.77;;
70270;SDS011;57680;54.292;18.598;2023-01-29T09:09:10;8.97;;;2.60;;
70270;SDS011;57680;54.292;18.598;2023-01-29T09:11:35;7.82;;;2.78;;
70270;SDS011;57680;54.292;18.598;2023-01-29T09:14:02;6.35;;;2.50;;
70270;SDS011;57680;54.292;18.598;2023-01-29T09:16:27;6.53;;;2.60;;
70270;SDS011;57680;54.292;18.598;2023-01-29T09:18:52;6.70;;;2.60;;
70270;SDS011;57680;54.292;18.598;2023-01-29T09:21:18;6.90;;;2.47;;
70270;SDS011;57680;54.292;18.598;2023-01-29T09:23:44;7.27;;;2.57;;
70270;SDS011;57680;54.292;18.598;2023-01-29T09:26:09;8.07;;;2.70;;
70270;SDS011;57680;54.292;18.598;2023-01-29T09:28:35;6.97;;;2.77;;
70270;SDS011;57680;54.292;18.598;2023-01-29T09:31:00;6.73;;;2.77;;
70270;SDS011;57680;54.292;18.598;2023-01-29T09:33:26;7.32;;;2.72;;
70270;SDS011;57680;54.292;18.598;2023-01-29T09:35:53;6.20;;;2.47;;
70270;SDS011;57680;54.292;18.598;2023-01-29T09:38:18;9.00;;;3.10;;
70270;SDS011;57680;54.292;18.598;2023-01-29T09:43:35;8.00;;;2.88;;
70270;SDS011;57680;54.292;18.598;2023-01-29T09:46:11;6.40;;;2.50;;
70270;SDS011;57680;54.292;18.598;2023-01-29T09:48:45;5.77;;;2.20;;
70270;SDS011;57680;54.292;18.598;2023-01-29T09:51:22;6.63;;;2.13;;
70270;SDS011;57680;54.292;18.598;2023-01-29T09:54:36;4.97;;;1.80;;
70270;SDS011;57680;54.292;18.598;2023-01-29T09:56:43;5.63;;;2.17;;
70270;SDS011;57680;54.292;18.598;2023-01-29T09:59:10;5.28;;;1.95;;
70270;SDS011;57680;54.292;18.598;2023-01-29T10:02:00;5.67;;;1.97;;
70270;SDS011;57680;54.292;18.598;2023-01-29T10:10:24;6.05;;;2.50;;
70270;SDS011;57680;54.292;18.598;2023-01-29T10:18:37;6.25;;;2.10;;
70270;SDS011;57680;54.292;18.598;2023-01-29T10:26:58;5.45;;;1.95;;
70270;SDS011;57680;54.292;18.598;2023-01-29T10:29:24;6.17;;;2.00;;
70270;SDS011;57680;54.292;18.598;2023-01-29T10:31:54;5.57;;;2.25;;
70270;SDS011;57680;54.292;18.598;2023-01-29T10:34:39;6.50;;;2.70;;
70270;SDS011;57680;54.292;18.598;2023-01-29T10:37:20;5.25;;;2.20;;
70270;SDS011;57680;54.292;18.598;2023-01-29T10:39:48;6.40;;;2.28;;
70270;SDS011;57680;54.292;18.598;2023-01-29T10:52:47;6.28;;;2.60;;
70270;SDS011;57680;54.292;18.598;2023-01-29T11:01:22;6.82;;;2.83;;
70270;SDS011;57680;54.292;18.598;2023-01-29T11:03:55;6.90;;;2.80;;
70270;SDS011;57680;54.292;18.598;2023-01-29T11:08:58;5.55;;;2.47;;
70270;SDS011;57680;54.292;18.598;2023-01-29T11:14:41;6.35;;;2.60;;
70270;SDS011;57680;54.292;18.598;2023-01-29T11:17:13;8.07;;;2.70;;
70270;SDS011;57680;54.292;18.598;2023-01-29T11:19:43;7.80;;;3.03;;
70270;SDS011;57680;54.292;18.598;2023-01-29T11:22:14;6.10;;;2.53;;
70270;SDS011;57680;54.292;18.598;2023-01-29T11:24:42;8.80;;;3.13;;
70270;SDS011;57680;54.292;18.598;2023-01-29T11:27:23;6.97;;;2.92;;
70270;SDS011;57680;54.292;18.598;2023-01-29T11:29:53;6.33;;;2.50;;
70270;SDS011;57680;54.292;18.598;2023-01-29T11:34:55;7.00;;;3.10;;
70270;SDS011;57680;54.292;18.598;2023-01-29T11:37:40;4.85;;;2.08;;
70270;SDS011;57680;54.292;18.598;2023-01-29T11:42:48;7.82;;;2.80;;
70270;SDS011;57680;54.292;18.598;2023-01-29T11:47:44;6.83;;;2.60;;
70270;SDS011;57680;54.292;18.598;2023-01-29T11:50:18;7.57;;;3.08;;
70270;SDS011;57680;54.292;18.598;2023-01-29T11:52:49;8.63;;;3.22;;
70270;SDS011;57680;54.292;18.598;2023-01-29T11:57:45;8.57;;;3.03;;
70270;SDS011;57680;54.292;18.598;2023-01-29T12:00:25;8.40;;;3.27;;
70270;SDS011;57680;54.292;18.598;2023-01-29T12:05:28;10.98;;;3.53;;
70270;SDS011;57680;54.292;18.598;2023-01-29T12:07:55;10.40;;;3.80;;
70270;SDS011;57680;54.292;18.598;2023-01-29T12:10:34;8.53;;;3.33;;
70270;SDS011;57680;54.292;18.598;2023-01-29T12:13:42;8.90;;;3.80;;
70270;SDS011;57680;54.292;18.598;2023-01-29T12:18:45;9.93;;;3.60;;
70270;SDS011;57680;54.292;18.598;2023-01-29T12:24:02;9.47;;;3.73;;
70270;SDS011;57680;54.292;18.598;2023-01-29T12:34:56;9.18;;;3.83;;
70270;SDS011;57680;54.292;18.598;2023-01-29T12:37:50;8.30;;;3.50;;
70270;SDS011;57680;54.292;18.598;2023-01-29T12:40:41;9.00;;;3.70;;
70270;SDS011;57680;54.292;18.598;2023-01-29T12:43:18;11.10;;;4.00;;
70270;SDS011;57680;54.292;18.598;2023-01-29T12:45:51;10.35;;;3.90;;
70270;SDS011;57680;54.292;18.598;2023-01-29T12:48:20;8.23;;;3.63;;
70270;SDS011;57680;54.292;18.598;2023-01-29T12:50:49;9.50;;;3.50;;
70270;SDS011;57680;54.292;18.598;2023-01-29T12:53:25;7.65;;;3.00;;
70270;SDS011;57680;54.292;18.598;2023-01-29T12:55:57;8.73;;;3.35;;
70270;SDS011;57680;54.292;18.598;2023-01-29T12:58:34;10.20;;;3.50;;
70270;SDS011;57680;54.292;18.598;2023-01-29T13:01:07;9.93;;;3.60;;
70270;SDS011;57680;54.292;18.598;2023-01-29T13:03:50;8.67;;;3.47;;
70270;SDS011;57680;54.292;18.598;2023-01-29T13:06:25;8.52;;;3.22;;
70270;SDS011;57680;54.292;18.598;2023-01-29T13:09:14;7.55;;;2.63;;
70270;SDS011;57680;54.292;18.598;2023-01-29T13:11:52;9.88;;;3.33;;
70270;SDS011;57680;54.292;18.598;2023-01-29T13:14:47;7.20;;;2.70;;
70270;SDS011;57680;54.292;18.598;2023-01-29T13:17:36;7.67;;;3.00;;
70270;SDS011;57680;54.292;18.598;2023-01-29T13:22:47;8.50;;;3.28;;
70270;SDS011;57680;54.292;18.598;2023-01-29T13:25:15;9.00;;;3.42;;
70270;SDS011;57680;54.292;18.598;2023-01-29T13:27:42;8.77;;;3.42;;
70270;SDS011;57680;54.292;18.598;2023-01-29T13:30:22;10.73;;;4.07;;
70270;SDS011;57680;54.292;18.598;2023-01-29T13:32:53;8.98;;;3.30;;
70270;SDS011;57680;54.292;18.598;2023-01-29T13:35:32;7.43;;;3.15;;
70270;SDS011;57680;54.292;18.598;2023-01-29T13:38:05;9.02;;;3.60;;
70270;SDS011;57680;54.292;18.598;2023-01-29T13:40:49;9.32;;;3.58;;
70270;SDS011;57680;54.292;18.598;2023-01-29T13:43:21;10.43;;;3.80;;
70270;SDS011;57680;54.292;18.598;2023-01-29T13:45:48;9.93;;;3.90;;
70270;SDS011;57680;54.292;18.598;2023-01-29T13:48:24;8.20;;;3.55;;
70270;SDS011;57680;54.292;18.598;2023-01-29T13:50:52;8.63;;;3.42;;
70270;SDS011;57680;54.292;18.598;2023-01-29T13:53:38;10.23;;;3.70;;
70270;SDS011;57680;54.292;18.598;2023-01-29T13:59:00;9.80;;;3.65;;
70270;SDS011;57680;54.292;18.598;2023-01-29T14:02:27;8.63;;;3.47;;
70270;SDS011;57680;54.292;18.598;2023-01-29T14:04:27;10.10;;;3.72;;
70270;SDS011;57680;54.292;18.598;2023-01-29T14:06:58;8.82;;;3.65;;
70270;SDS011;57680;54.292;18.598;2023-01-29T14:09:31;11.10;;;3.53;;
70270;SDS011;57680;54.292;18.598;2023-01-29T14:11:57;8.80;;;3.40;;
70270;SDS011;57680;54.292;18.598;2023-01-29T14:17:20;8.70;;;3.45;;
70270;SDS011;57680;54.292;18.598;2023-01-29T14:19:50;8.30;;;3.50;;
70270;SDS011;57680;54.292;18.598;2023-01-29T14:22:21;9.35;;;3.35;;
70270;SDS011;57680;54.292;18.598;2023-01-29T14:24:49;7.70;;;3.15;;
70270;SDS011;57680;54.292;18.598;2023-01-29T14:27:23;8.75;;;3.50;;
70270;SDS011;57680;54.292;18.598;2023-01-29T14:29:50;9.95;;;3.78;;
70270;SDS011;57680;54.292;18.598;2023-01-29T14:32:21;8.20;;;3.63;;
70270;SDS011;57680;54.292;18.598;2023-01-29T14:34:50;10.27;;;3.35;;
70270;SDS011;57680;54.292;18.598;2023-01-29T14:40:43;9.27;;;3.60;;
70270;SDS011;57680;54.292;18.598;2023-01-29T14:45:23;12.27;;;3.90;;
70270;SDS011;57680;54.292;18.598;2023-01-29T14:55:29;9.32;;;3.95;;
70270;SDS011;57680;54.292;18.598;2023-01-29T14:58:01;8.70;;;3.70;;
70270;SDS011;57680;54.292;18.598;2023-01-29T15:00:29;9.13;;;4.18;;
70270;SDS011;57680;54.292;18.598;2023-01-29T15:02:58;9.83;;;4.17;;
70270;SDS011;57680;54.292;18.598;2023-01-29T15:05:28;10.60;;;3.70;;
70270;SDS011;57680;54.292;18.598;2023-01-29T15:08:07;9.15;;;3.45;;
70270;SDS011;57680;54.292;18.598;2023-01-29T15:10:43;9.25;;;3.53;;
70270;SDS011;57680;54.292;18.598;2023-01-29T15:16:24;9.30;;;3.23;;
70270;SDS011;57680;54.292;18.598;2023-01-29T15:18:55;8.90;;;3.47;;
70270;SDS011;57680;54.292;18.598;2023-01-29T15:21:31;9.38;;;3.35;;
70270;SDS011;57680;54.292;18.598;2023-01-29T15:24:03;9.30;;;3.20;;
70270;SDS011;57680;54.292;18.598;2023-01-29T15:26:30;8.80;;;3.17;;
70270;SDS011;57680;54.292;18.598;2023-01-29T15:28:57;8.45;;;3.00;;
70270;SDS011;57680;54.292;18.598;2023-01-29T15:31:24;7.85;;;3.30;;
70270;SDS011;57680;54.292;18.598;2023-01-29T15:33:52;7.88;;;3.10;;
70270;SDS011;57680;54.292;18.598;2023-01-29T15:36:23;7.68;;;3.35;;
70270;SDS011;57680;54.292;18.598;2023-01-29T15:41:36;8.18;;;3.13;;
70270;SDS011;57680;54.292;18.598;2023-01-29T15:44:01;9.18;;;3.17;;
70270;SDS011;57680;54.292;18.598;2023-01-29T15:46:36;8.07;;;2.93;;
70270;SDS011;57680;54.292;18.598;2023-01-29T15:49:06;8.73;;;3.10;;
70270;SDS011;57680;54.292;18.598;2023-01-29T15:51:34;7.25;;;3.00;;
70270;SDS011;57680;54.292;18.598;2023-01-29T15:54:04;8.38;;;2.90;;
70270;SDS011;57680;54.292;18.598;2023-01-29T15:56:38;6.95;;;2.58;;
70270;SDS011;57680;54.292;18.598;2023-01-29T15:59:07;8.63;;;3.27;;
70270;SDS011;57680;54.292;18.598;2023-01-29T16:01:40;8.32;;;2.70;;
70270;SDS011;57680;54.292;18.598;2023-01-29T16:04:08;7.57;;;2.80;;
70270;SDS011;57680;54.292;18.598;2023-01-29T16:06:39;8.52;;;2.85;;
70270;SDS011;57680;54.292;18.598;2023-01-29T16:09:05;9.15;;;3.28;;
70270;SDS011;57680;54.292;18.598;2023-01-29T16:11:32;8.37;;;3.00;;
70270;SDS011;57680;54.292;18.598;2023-01-29T16:13:59;9.55;;;3.40;;
70270;SDS011;57680;54.292;18.598;2023-01-29T16:16:26;7.53;;;2.85;;
70270;SDS011;57680;54.292;18.598;2023-01-29T16:18:52;7.88;;;3.05;;
70270;SDS011;57680;54.292;18.598;2023-01-29T16:21:22;9.02;;;3.17;;
70270;SDS011;57680;54.292;18.598;2023-01-29T16:24:03;8.13;;;3.27;;
70270;SDS011;57680;54.292;18.598;2023-01-29T16:26:36;10.75;;;4.50;;
70270;SDS011;57680;54.292;18.598;2023-01-29T16:29:08;10.50;;;4.15;;
70270;SDS011;57680;54.292;18.598;2023-01-29T16:31:36;11.57;;;4.70;;
70270;SDS011;57680;54.292;18.598;2023-01-29T16:34:07;12.40;;;4.60;;
70270;SDS011;57680;54.292;18.598;2023-01-29T16:36:42;12.03;;;4.63;;
70270;SDS011;57680;54.292;18.598;2023-01-29T16:39:17;13.00;;;4.60;;
70270;SDS011;57680;54.292;18.598;2023-01-29T16:42:33;12.95;;;4.82;;
70270;SDS011;57680;54.292;18.598;2023-01-29T16:47:13;11.57;;;4.40;;
70270;SDS011;57680;54.292;18.598;2023-01-29T16:49:47;11.03;;;4.37;;
70270;SDS011;57680;54.292;18.598;2023-01-29T16:52:18;10.63;;;3.97;;
70270;SDS011;57680;54.292;18.598;2023-01-29T16:54:44;11.88;;;4.43;;
70270;SDS011;57680;54.292;18.598;2023-01-29T16:57:11;10.63;;;4.03;;
70270;SDS011;57680;54.292;18.598;2023-01-29T16:59:40;11.52;;;4.60;;
70270;SDS011;57680;54.292;18.598;2023-01-29T17:02:49;12.25;;;4.80;;
70270;SDS011;57680;54.292;18.598;2023-01-29T17:04:58;12.48;;;4.50;;
70270;SDS011;57680;54.292;18.598;2023-01-29T17:07:37;12.17;;;4.50;;
70270;SDS011;57680;54.292;18.598;2023-01-29T17:10:03;12.35;;;4.55;;
70270;SDS011;57680;54.292;18.598;2023-01-29T17:12:31;11.18;;;4.85;;
70270;SDS011;57680;54.292;18.598;2023-01-29T17:14:59;14.07;;;4.77;;
70270;SDS011;57680;54.292;18.598;2023-01-29T17:17:32;12.93;;;4.95;;
70270;SDS011;57680;54.292;18.598;2023-01-29T17:20:13;13.98;;;5.00;;
70270;SDS011;57680;54.292;18.598;2023-01-29T17:22:40;12.20;;;4.88;;
70270;SDS011;57680;54.292;18.598;2023-01-29T17:25:06;13.50;;;5.30;;
70270;SDS011;57680;54.292;18.598;2023-01-29T17:27:33;12.27;;;4.70;;
70270;SDS011;57680;54.292;18.598;2023-01-29T17:29:58;14.98;;;5.28;;